Skanee, Michigan
Current Conditions -  °F | °C
As of 11:53 AM on Sunday 21 Dec 2014 (Local Time) from KCMX Reporting Station
Overcast Overcast  
Wind Chill: 23°   Ceiling: 2200
Heat Index: 31°   Visibility: 10mi
Dew Point: 26°   Wind: 9mph
Humidity: 82%   Direction: 140°SE
Pressure: 29.99"   Gusts: NA
Location:  46.87°N, 88.21°W
Report Text: KCMX 211653Z AUTO 14008KT 10SM OVC022 M01/M03 A2999 RMK AO2 SLP170 T10061033
Loading
Personal Weather Stations






























Interactive Weather Map New forecast layout! Learn more

10-Day Weather Forecast

Advertisements
Track Severe Weather on mobile